createdAt,value
2022-07-29T00:00:23.723Z,1.04
2022-07-29T00:01:23.824Z,1.04
2022-07-29T00:02:24.066Z,1.04
2022-07-29T00:03:24.163Z,1.04
2022-07-29T00:04:24.271Z,1.04
2022-07-29T00:05:24.334Z,1.04
2022-07-29T00:06:24.488Z,1.04
2022-07-29T00:07:24.636Z,1.04
2022-07-29T00:08:24.744Z,1.04
2022-07-29T00:09:24.894Z,1.04
2022-07-29T00:10:25.054Z,1.04
2022-07-29T00:11:25.152Z,1.04
2022-07-29T00:12:26.149Z,1.04
2022-07-29T00:13:31.916Z,1.04
2022-07-29T00:14:25.505Z,1.04
2022-07-29T00:15:25.653Z,1.04
2022-07-29T00:16:25.807Z,1.04
2022-07-29T00:17:25.865Z,1.04
2022-07-29T00:18:25.960Z,1.04
2022-07-29T00:19:26.061Z,1.04
2022-07-29T00:20:26.161Z,1.04
2022-07-29T00:21:26.315Z,1.04
2022-07-29T00:22:26.841Z,1.04
2022-07-29T00:23:26.627Z,1.04
2022-07-29T00:24:27.115Z,1.04
2022-07-29T00:25:26.898Z,1.04
2022-07-29T00:26:27.024Z,1.04
2022-07-29T00:27:27.175Z,1.04
2022-07-29T00:28:27.281Z,1.04
2022-07-29T00:29:34.588Z,1.04
2022-07-29T00:30:27.621Z,1.04
2022-07-29T00:31:27.824Z,1.04
2022-07-29T00:32:27.898Z,1.04
2022-07-29T00:33:28.043Z,1.04
2022-07-29T00:34:28.187Z,1.04
2022-07-29T00:35:28.293Z,1.04
2022-07-29T00:36:28.443Z,1.04
2022-07-29T00:37:28.544Z,1.04
2022-07-29T00:38:28.647Z,1.04
2022-07-29T00:39:28.765Z,1.04
2022-07-29T00:40:28.868Z,1.04
2022-07-29T00:41:28.958Z,1.04
2022-07-29T00:42:29.055Z,1.04
2022-07-29T00:43:29.159Z,1.04
2022-07-29T00:44:29.264Z,1.04
2022-07-29T00:45:29.417Z,1.04
2022-07-29T00:46:29.578Z,1.04
2022-07-29T00:47:29.665Z,1.04
2022-07-29T00:48:29.769Z,1.04
2022-07-29T00:49:29.876Z,1.04
2022-07-29T00:50:30.029Z,1.04
2022-07-29T00:51:30.126Z,1.04
2022-07-29T00:52:30.227Z,1.04
2022-07-29T00:53:30.377Z,1.04
2022-07-29T00:54:30.482Z,1.04
2022-07-29T00:55:30.634Z,1.04
2022-07-29T00:56:30.731Z,1.04
2022-07-29T00:57:30.832Z,1.04
2022-07-29T00:58:30.938Z,1.04
2022-07-29T00:59:34.495Z,1.04
2022-07-29T01:00:31.275Z,1.04
2022-07-29T01:01:31.343Z,1.04
2022-07-29T01:02:31.533Z,1.04
2022-07-29T01:03:31.594Z,1.04
2022-07-29T01:04:31.698Z,1.04
2022-07-29T01:05:48.338Z,1.04
2022-07-29T01:06:31.950Z,1.04
2022-07-29T01:07:32.102Z,1.04
2022-07-29T01:08:32.259Z,1.04
2022-07-29T01:09:42.067Z,1.04
2022-07-29T01:10:32.510Z,1.04
2022-07-29T01:11:32.619Z,1.04
2022-07-29T01:12:32.718Z,1.04
2022-07-29T01:13:32.869Z,1.04
2022-07-29T01:14:33.015Z,1.04
2022-07-29T01:15:33.120Z,1.04
2022-07-29T01:16:33.379Z,1.04
2022-07-29T01:17:33.375Z,1.04
2022-07-29T01:18:34.024Z,1.04
2022-07-29T01:19:33.585Z,1.04
2022-07-29T01:20:33.682Z,1.04
2022-07-29T01:21:33.830Z,1.04
2022-07-29T01:22:33.954Z,1.04
2022-07-29T01:23:34.110Z,1.04
2022-07-29T01:24:34.232Z,1.04
2022-07-29T01:25:34.336Z,1.04
2022-07-29T01:26:34.440Z,1.04
2022-07-29T01:27:34.545Z,1.04
2022-07-29T01:28:34.692Z,1.04
2022-07-29T01:29:35.916Z,1.04
2022-07-29T01:30:34.949Z,1.04
2022-07-29T01:31:36.554Z,1.04
2022-07-29T01:32:35.207Z,1.04
2022-07-29T01:33:35.302Z,1.04
2022-07-29T01:34:35.455Z,1.04
2022-07-29T01:35:35.559Z,1.04
2022-07-29T01:36:35.665Z,1.04
2022-07-29T01:37:35.811Z,1.04
2022-07-29T01:38:35.914Z,1.04
2022-07-29T01:39:36.063Z,1.04
2022-07-29T01:40:36.223Z,1.04
2022-07-29T01:41:36.319Z,1.04
2022-07-29T01:42:36.471Z,1.04
2022-07-29T01:43:36.628Z,1.04
2022-07-29T01:44:36.722Z,1.04
2022-07-29T01:45:36.828Z,1.04
2022-07-29T01:46:36.979Z,1.04
2022-07-29T01:47:37.077Z,1.04
2022-07-29T01:48:37.233Z,1.04
2022-07-29T01:49:37.333Z,1.04
2022-07-29T01:50:37.440Z,1.04
2022-07-29T01:51:37.538Z,1.04
2022-07-29T01:52:37.647Z,1.04
2022-07-29T01:53:38.341Z,1.04
2022-07-29T01:54:37.944Z,1.04
2022-07-29T01:55:38.121Z,1.04
2022-07-29T01:56:38.205Z,1.04
2022-07-29T01:57:38.349Z,1.04
2022-07-29T01:58:38.452Z,1.04
2022-07-29T01:59:38.554Z,1.04
2022-07-29T02:00:38.709Z,1.04
2022-07-29T02:01:38.881Z,1.04
2022-07-29T02:02:38.959Z,1.04
2022-07-29T02:03:39.113Z,1.04
2022-07-29T02:04:39.270Z,1.04
2022-07-29T02:05:39.326Z,1.04
2022-07-29T02:06:39.478Z,1.04
2022-07-29T02:07:39.615Z,1.04
2022-07-29T02:08:39.724Z,1.04
2022-07-29T02:09:39.819Z,1.04
2022-07-29T02:10:39.932Z,1.04
2022-07-29T02:11:40.032Z,1.04
2022-07-29T02:12:40.145Z,1.04
2022-07-29T02:13:40.283Z,1.04
2022-07-29T02:14:40.381Z,1.04
2022-07-29T02:15:40.511Z,1.04
2022-07-29T02:16:40.583Z,1.04
2022-07-29T02:17:40.959Z,1.04
2022-07-29T02:18:40.789Z,1.04
2022-07-29T02:19:40.893Z,1.04
2022-07-29T02:20:40.996Z,1.04
2022-07-29T02:21:41.092Z,1.04
2022-07-29T02:22:41.196Z,1.04
2022-07-29T02:23:44.990Z,1.04
2022-07-29T02:24:41.502Z,1.04
2022-07-29T02:25:41.600Z,1.04
2022-07-29T02:26:41.709Z,1.04
2022-07-29T02:27:41.806Z,1.04
2022-07-29T02:28:41.910Z,1.04
2022-07-29T02:29:42.008Z,1.04
2022-07-29T02:30:42.159Z,1.04
2022-07-29T02:31:42.361Z,1.04
2022-07-29T02:32:42.369Z,1.04
2022-07-29T02:33:42.472Z,1.04
2022-07-29T02:34:42.629Z,1.04
2022-07-29T02:35:42.730Z,1.04
2022-07-29T02:36:42.876Z,1.04
2022-07-29T02:37:43.023Z,1.04
2022-07-29T02:38:43.140Z,1.04
2022-07-29T02:39:43.287Z,1.04
2022-07-29T02:40:43.382Z,1.04
2022-07-29T02:41:43.536Z,1.04
2022-07-29T02:42:43.637Z,1.04
2022-07-29T02:43:43.787Z,1.04
2022-07-29T02:44:43.889Z,1.04
2022-07-29T02:45:44.039Z,1.04
2022-07-29T02:46:44.178Z,1.04
2022-07-29T02:47:44.246Z,1.04
2022-07-29T02:48:44.442Z,1.04
2022-07-29T02:49:44.508Z,2
2022-07-29T02:50:45.292Z,2
2022-07-29T02:51:45.439Z,2
2022-07-29T02:52:44.911Z,2
2022-07-29T02:53:45.554Z,2
2022-07-29T02:54:45.174Z,2
2022-07-29T02:55:45.314Z,3.04
2022-07-29T02:56:45.419Z,3.04
2022-07-29T02:57:54.228Z,3.04
2022-07-29T02:58:45.666Z,4
2022-07-29T02:59:45.765Z,4
2022-07-29T03:00:45.866Z,5.04
2022-07-29T03:01:46.049Z,6
2022-07-29T03:02:46.118Z,6
2022-07-29T03:03:46.307Z,7.04
2022-07-29T03:04:46.422Z,8
2022-07-29T03:05:46.492Z,10
2022-07-29T03:06:46.571Z,11.04
2022-07-29T03:07:46.701Z,12
2022-07-29T03:08:46.827Z,14
2022-07-29T03:09:46.930Z,16
2022-07-29T03:10:47.091Z,18
2022-07-29T03:11:50.258Z,20
2022-07-29T03:12:47.345Z,22
2022-07-29T03:13:47.447Z,24
2022-07-29T03:14:47.604Z,26
2022-07-29T03:15:47.753Z,30
2022-07-29T03:16:47.854Z,34
2022-07-29T03:17:47.952Z,42
2022-07-29T03:18:48.054Z,49.04
2022-07-29T03:19:48.205Z,53.04
2022-07-29T03:20:48.358Z,59.04
2022-07-29T03:21:48.520Z,102
2022-07-29T03:22:48.621Z,133.04
2022-07-29T03:23:48.767Z,159.04
2022-07-29T03:24:48.889Z,157.04
2022-07-29T03:25:48.994Z,157.04
2022-07-29T03:26:49.119Z,159.04
2022-07-29T03:27:49.230Z,171.04
2022-07-29T03:28:49.381Z,190.08
2022-07-29T03:29:49.811Z,221.12
2022-07-29T03:30:49.638Z,258.08
2022-07-29T03:31:49.730Z,275.04
2022-07-29T03:32:49.890Z,287.04
2022-07-29T03:33:49.985Z,300
2022-07-29T03:34:50.135Z,311.04
2022-07-29T03:35:50.236Z,323.04
2022-07-29T03:36:50.338Z,336
2022-07-29T03:37:50.530Z,348.16
2022-07-29T03:38:50.591Z,370.24
2022-07-29T03:39:50.755Z,389.12
2022-07-29T03:40:50.894Z,413.12
2022-07-29T03:41:51.051Z,431.04
2022-07-29T03:42:51.158Z,437.12
2022-07-29T03:43:51.301Z,428.16
2022-07-29T03:44:51.409Z,421.12
2022-07-29T03:45:51.507Z,421.12
2022-07-29T03:46:51.646Z,426.24
2022-07-29T03:47:53.805Z,438.08
2022-07-29T03:48:51.891Z,448
2022-07-29T03:49:51.916Z,464
2022-07-29T03:50:52.016Z,482.24
2022-07-29T03:51:52.119Z,501.12
2022-07-29T03:52:52.268Z,516.16
2022-07-29T03:53:52.371Z,541.12
2022-07-29T03:54:52.537Z,562.24
2022-07-29T03:55:52.631Z,585.28
2022-07-29T03:56:52.783Z,609.28
2022-07-29T03:57:52.940Z,633.28
2022-07-29T03:58:53.084Z,661.12
2022-07-29T03:59:53.183Z,702.08
2022-07-29T04:00:53.283Z,743.04
2022-07-29T04:01:53.488Z,780.16
2022-07-29T04:02:53.544Z,845.44
2022-07-29T04:03:53.751Z,891.52
2022-07-29T04:04:53.733Z,964.48
2022-07-29T04:05:53.915Z,1043.2
2022-07-29T04:06:54.038Z,1133.44
2022-07-29T04:07:54.220Z,1231.36
2022-07-29T04:08:54.357Z,1413.12
2022-07-29T04:09:54.456Z,1557.76
2022-07-29T04:10:54.605Z,1704.96
2022-07-29T04:11:57.242Z,1854.72
2022-07-29T04:12:54.860Z,1999.36
2022-07-29T04:13:54.964Z,2131.2
2022-07-29T04:14:55.076Z,2282.24
2022-07-29T04:15:55.269Z,2421.76
2022-07-29T04:16:55.315Z,2465.28
2022-07-29T04:17:55.419Z,2465.28
2022-07-29T04:18:55.517Z,2552.32
2022-07-29T04:19:55.669Z,2670.08
2022-07-29T04:20:55.825Z,2772.48
2022-07-29T04:21:55.938Z,2836.48
2022-07-29T04:22:56.028Z,2964.48
2022-07-29T04:23:56.183Z,3141.12
2022-07-29T04:24:59.078Z,3358.72
2022-07-29T04:25:56.382Z,3591.68
2022-07-29T04:26:56.484Z,3832.32
2022-07-29T04:27:56.640Z,4088.32
2022-07-29T04:28:56.788Z,4326.4
2022-07-29T04:29:57.557Z,4592.64
2022-07-29T04:30:57.049Z,4784.64
2022-07-29T04:31:57.144Z,5053.44
2022-07-29T04:32:57.245Z,5329.92
2022-07-29T04:33:57.352Z,5601.28
2022-07-29T04:34:57.523Z,5867.52
2022-07-29T04:35:57.679Z,6149.12
2022-07-29T04:36:57.756Z,6440.96
2022-07-29T04:37:57.859Z,6748.16
2022-07-29T04:38:57.952Z,7045.12
2022-07-29T04:39:58.115Z,7362.56
2022-07-29T04:40:58.215Z,7654.4
2022-07-29T04:41:58.312Z,7992.32
2022-07-29T04:42:58.424Z,8355.84
2022-07-29T04:43:58.519Z,8785.92
2022-07-29T04:44:58.622Z,9277.439
2022-07-29T04:45:58.806Z,9763.84
2022-07-29T04:46:58.926Z,10357.76
2022-07-29T04:47:58.978Z,10905.6
2022-07-29T04:48:59.137Z,11356.16
2022-07-29T04:49:59.179Z,11735.04
2022-07-29T04:50:59.335Z,12124.16
2022-07-29T04:51:59.433Z,12605.439
2022-07-29T04:52:59.549Z,14725.12
2022-07-29T04:53:59.640Z,17162.24
2022-07-29T04:54:59.739Z,19793.92
2022-07-29T04:55:59.891Z,23265.28
2022-07-29T04:56:59.996Z,22794.24
2022-07-29T04:58:00.145Z,28364.8
2022-07-29T04:59:00.247Z,33320.96
2022-07-29T05:00:00.359Z,37683.2
2022-07-29T05:01:00.496Z,41021.44
2022-07-29T05:02:00.696Z,42352.64
2022-07-29T05:03:01.013Z,42598.4
2022-07-29T05:04:00.964Z,40878.08
2022-07-29T05:05:01.011Z,31928.32
2022-07-29T05:06:01.157Z,13690.88
2022-07-29T05:07:01.312Z,12288
2022-07-29T05:08:01.415Z,11499.52
2022-07-29T05:09:01.579Z,11141.12
2022-07-29T05:10:01.714Z,10885.12
2022-07-29T05:11:11.430Z,10762.24
2022-07-29T05:12:01.918Z,10649.6
2022-07-29T05:13:02.073Z,10557.439
2022-07-29T05:14:02.176Z,10506.24
2022-07-29T05:15:02.281Z,10470.399
2022-07-29T05:16:02.474Z,10444.8
2022-07-29T05:17:02.504Z,10429.439
2022-07-29T05:18:02.637Z,10383.359
2022-07-29T05:19:02.787Z,10316.8
2022-07-29T05:20:02.889Z,10219.52
2022-07-29T05:21:02.996Z,10024.96
2022-07-29T05:22:03.090Z,9856
2022-07-29T05:23:03.242Z,9692.16
2022-07-29T05:24:03.347Z,9538.56
2022-07-29T05:25:08.681Z,9436.16
2022-07-29T05:26:03.661Z,9364.479
2022-07-29T05:27:03.749Z,9338.88
2022-07-29T05:28:03.853Z,9313.28
2022-07-29T05:29:03.958Z,9338.88
2022-07-29T05:30:04.065Z,9405.439
2022-07-29T05:31:04.211Z,9492.479
2022-07-29T05:32:04.263Z,9620.479
2022-07-29T05:33:04.374Z,9753.6
2022-07-29T05:34:04.521Z,9891.84
2022-07-29T05:35:04.665Z,9999.359
2022-07-29T05:36:04.766Z,10096.64
2022-07-29T05:37:04.865Z,10112
2022-07-29T05:38:04.972Z,10106.88
2022-07-29T05:39:05.123Z,10112
2022-07-29T05:40:05.230Z,10137.6
2022-07-29T05:41:05.395Z,10163.2
2022-07-29T05:42:05.484Z,10214.399
2022-07-29T05:43:05.636Z,10296.319
2022-07-29T05:44:05.785Z,10398.72
2022-07-29T05:45:05.902Z,10577.92
2022-07-29T05:46:06.048Z,10721.279
2022-07-29T05:47:06.206Z,10864.64
2022-07-29T05:48:06.341Z,10977.279
2022-07-29T05:49:06.536Z,11079.68
2022-07-29T05:50:06.602Z,11161.6
2022-07-29T05:51:06.750Z,11243.52
2022-07-29T05:52:06.896Z,11325.439
2022-07-29T05:53:18.797Z,11427.84
2022-07-29T05:54:07.202Z,11438.08
2022-07-29T05:55:07.360Z,11479.04
2022-07-29T05:56:07.460Z,11520
2022-07-29T05:57:07.556Z,11612.16
2022-07-29T05:58:07.916Z,11765.76
2022-07-29T05:59:15.192Z,12001.279
2022-07-29T06:00:07.918Z,12277.76
2022-07-29T06:01:08.125Z,12605.439
2022-07-29T06:02:08.217Z,12810.239
2022-07-29T06:03:08.371Z,12871.68
2022-07-29T06:04:08.522Z,12943.359
2022-07-29T06:05:12.879Z,12963.84
2022-07-29T06:06:08.675Z,13762.56
2022-07-29T06:07:08.778Z,13793.279
2022-07-29T06:08:08.895Z,13854.72
2022-07-29T06:09:12.102Z,13916.16
2022-07-29T06:10:09.192Z,13987.84
2022-07-29T06:11:09.338Z,13987.84
2022-07-29T06:12:09.437Z,13987.84
2022-07-29T06:13:09.590Z,13936.64
2022-07-29T06:14:09.739Z,13875.199
2022-07-29T06:15:09.894Z,13772.8
2022-07-29T06:16:10.116Z,13619.199
2022-07-29T06:17:10.157Z,13414.399
2022-07-29T06:18:10.253Z,13178.88
2022-07-29T06:19:10.406Z,12922.88
2022-07-29T06:20:10.817Z,12728.319
2022-07-29T06:21:10.611Z,12544
2022-07-29T06:22:10.708Z,12390.399
2022-07-29T06:23:10.807Z,12318.72
2022-07-29T06:24:10.933Z,12267.52
2022-07-29T06:25:11.066Z,12288
2022-07-29T06:26:11.164Z,12441.6
2022-07-29T06:27:11.267Z,12666.88
2022-07-29T06:28:11.367Z,12830.72
2022-07-29T06:29:11.479Z,13137.92
2022-07-29T06:30:11.624Z,13312
2022-07-29T06:31:11.774Z,13527.04
2022-07-29T06:32:11.832Z,13731.84
2022-07-29T06:33:11.929Z,13977.6
2022-07-29T06:34:12.052Z,14233.6
2022-07-29T06:35:33.290Z,14530.56
2022-07-29T06:36:12.280Z,14725.12
2022-07-29T06:37:15.695Z,14837.76
2022-07-29T06:38:25.165Z,14837.76
2022-07-29T06:39:12.740Z,14766.08
2022-07-29T06:40:12.740Z,14571.52
2022-07-29T06:41:12.896Z,14458.88
2022-07-29T06:42:13.019Z,14336
2022-07-29T06:43:13.104Z,14213.12
2022-07-29T06:44:13.354Z,13998.08
2022-07-29T06:45:13.381Z,13772.8
2022-07-29T06:46:13.578Z,13568
2022-07-29T06:47:13.658Z,13301.76
2022-07-29T06:48:13.762Z,12994.56
2022-07-29T06:49:13.995Z,12625.92
2022-07-29T06:50:14.012Z,12359.68
2022-07-29T06:51:14.115Z,11694.08
2022-07-29T06:52:14.226Z,11376.64
2022-07-29T06:53:14.370Z,11110.399
2022-07-29T06:54:14.801Z,10915.84
2022-07-29T06:55:24.616Z,10782.72
2022-07-29T06:56:14.822Z,10741.76
2022-07-29T06:57:14.931Z,10772.479
2022-07-29T06:58:15.080Z,10864.64
2022-07-29T06:59:15.224Z,11018.24
2022-07-29T07:00:15.377Z,11171.84
2022-07-29T07:01:15.588Z,11304.96
2022-07-29T07:02:15.629Z,11479.04
2022-07-29T07:03:15.689Z,11612.16
2022-07-29T07:04:16.058Z,11735.04
2022-07-29T07:05:15.890Z,11857.92
2022-07-29T07:06:15.990Z,11980.8
2022-07-29T07:07:16.091Z,12124.16
2022-07-29T07:08:16.209Z,12308.479
2022-07-29T07:09:16.350Z,12472.319
2022-07-29T07:10:16.499Z,12687.359
2022-07-29T07:11:16.600Z,12881.92
2022-07-29T07:12:16.904Z,14008.319
2022-07-29T07:13:17.010Z,14428.16
2022-07-29T07:14:17.362Z,14899.199
2022-07-29T07:15:17.304Z,15411.199
2022-07-29T07:16:17.514Z,16066.56
2022-07-29T07:17:17.560Z,16711.68
2022-07-29T07:18:17.665Z,17428.48
2022-07-29T07:19:17.814Z,18053.12
2022-07-29T07:20:17.915Z,18554.88
2022-07-29T07:21:18.716Z,19271.68
2022-07-29T07:22:18.169Z,19906.56
2022-07-29T07:23:18.354Z,21073.92
2022-07-29T07:24:18.699Z,21401.6
2022-07-29T07:25:18.573Z,21995.52
2022-07-29T07:26:18.732Z,29736.96
2022-07-29T07:27:18.880Z,22650.88
2022-07-29T07:28:18.982Z,22220.8
2022-07-29T07:29:19.089Z,22384.64
2022-07-29T07:30:19.184Z,22855.68
2022-07-29T07:31:19.349Z,23449.6
2022-07-29T07:32:19.696Z,24186.88
2022-07-29T07:33:19.486Z,24780.8
2022-07-29T07:34:19.687Z,25272.32
2022-07-29T07:35:19.804Z,26664.96
2022-07-29T07:36:19.944Z,26808.32
2022-07-29T07:37:20.101Z,25804.8
2022-07-29T07:38:20.202Z,25702.4
2022-07-29T07:39:20.308Z,26296.32
2022-07-29T07:40:20.416Z,26419.2
2022-07-29T07:41:20.511Z,27545.6
2022-07-29T07:42:20.615Z,24657.92
2022-07-29T07:43:20.715Z,21626.88
2022-07-29T07:44:21.104Z,20428.8
2022-07-29T07:45:20.905Z,20418.56
2022-07-29T07:46:21.084Z,20940.8
2022-07-29T07:47:21.166Z,21913.6
2022-07-29T07:48:21.261Z,23449.6
2022-07-29T07:49:21.660Z,26152.96
2022-07-29T07:50:21.594Z,40673.28
2022-07-29T07:51:21.615Z,44113.92
2022-07-29T07:52:21.805Z,38420.48
2022-07-29T07:53:22.173Z,30208
2022-07-29T07:54:22.027Z,29982.72
2022-07-29T07:55:22.214Z,30638.08
2022-07-29T07:56:22.343Z,31928.32
2022-07-29T07:57:22.448Z,32747.52
2022-07-29T07:58:22.549Z,34222.08
2022-07-29T07:59:22.705Z,35430.4
2022-07-29T08:00:23.170Z,37335.04
2022-07-29T08:01:22.999Z,36167.68
2022-07-29T08:02:23.074Z,40468.48
2022-07-29T08:03:23.148Z,36823.04
2022-07-29T08:04:27.255Z,34611.2
2022-07-29T08:05:23.447Z,34140.16
2022-07-29T08:06:23.550Z,34201.6
2022-07-29T08:07:23.654Z,35246.08
2022-07-29T08:08:23.765Z,35020.8
2022-07-29T08:09:28.553Z,36495.36
2022-07-29T08:10:24.062Z,36679.68
2022-07-29T08:11:24.221Z,37416.96
2022-07-29T08:12:24.328Z,39260.16
2022-07-29T08:13:24.470Z,41840.64
2022-07-29T08:14:24.625Z,50790.4
2022-07-29T08:15:24.779Z,52183.04
2022-07-29T08:16:24.933Z,42475.52
2022-07-29T08:17:25.033Z,40038.4
2022-07-29T08:18:25.131Z,40099.84
2022-07-29T08:19:25.227Z,40099.84
2022-07-29T08:20:25.450Z,40140.8
2022-07-29T08:21:25.478Z,39219.2
2022-07-29T08:22:25.583Z,36044.8
2022-07-29T08:23:25.688Z,33792
2022-07-29T08:24:25.844Z,31989.76
2022-07-29T08:25:25.939Z,30760.96
2022-07-29T08:26:26.096Z,30187.52
2022-07-29T08:27:42.791Z,30371.84
2022-07-29T08:28:26.344Z,30597.12
2022-07-29T08:29:26.447Z,31559.68
2022-07-29T08:30:26.602Z,33607.68
2022-07-29T08:31:26.831Z,49602.56
2022-07-29T08:32:51.165Z,64471.04
2022-07-29T08:33:27.057Z,93061.12
2022-07-29T08:34:27.721Z,88064
2022-07-29T08:35:29.155Z,94699.52
2022-07-29T08:36:27.417Z,91013.12
2022-07-29T08:37:27.525Z,95846.4
2022-07-29T08:38:27.667Z,99205.12
2022-07-29T08:39:27.774Z,60416
2022-07-29T08:40:30.688Z,59555.84
2022-07-29T08:41:28.018Z,33361.92
2022-07-29T08:42:28.121Z,27238.4
2022-07-29T08:43:28.225Z,34201.6
2022-07-29T08:44:30.681Z,31170.56
2022-07-29T08:45:28.456Z,38379.52
2022-07-29T08:46:28.590Z,94289.91
2022-07-29T08:47:28.683Z,98140.16
2022-07-29T08:48:28.784Z,98385.91
2022-07-29T08:49:28.972Z,97566.72
2022-07-29T08:50:29.036Z,99123.2
2022-07-29T08:51:29.193Z,100761.6
2022-07-29T08:52:29.342Z,100106.23
2022-07-29T08:53:29.444Z,98631.68
2022-07-29T08:54:29.543Z,100925.44
2022-07-29T08:55:29.648Z,100515.84
2022-07-29T08:56:29.804Z,100024.32
2022-07-29T08:57:29.905Z,101089.28
2022-07-29T08:58:30.008Z,101498.88
2022-07-29T08:59:31.353Z,49070.08
2022-07-29T09:00:30.258Z,45178.88
2022-07-29T09:01:35.352Z,85852.16
2022-07-29T09:02:30.567Z,35246.08
2022-07-29T09:03:30.781Z,37662.72
2022-07-29T09:04:30.817Z,91750.4
2022-07-29T09:05:30.940Z,107970.55
2022-07-29T09:06:31.069Z,68280.32
2022-07-29T09:07:33.040Z,109445.12
2022-07-29T09:08:31.277Z,116817.91
2022-07-29T09:09:31.377Z,50872.32
2022-07-29T09:10:31.559Z,85934.08
2022-07-29T09:11:31.727Z,59023.36
2022-07-29T09:12:34.835Z,69713.92
2022-07-29T09:13:31.946Z,76718.08
2022-07-29T09:14:32.031Z,107397.12
2022-07-29T09:15:32.137Z,103628.8
2022-07-29T09:16:52.114Z,100352
2022-07-29T09:17:32.486Z,77332.48
2022-07-29T09:18:32.594Z,106414.08
2022-07-29T09:19:32.705Z,104775.68
2022-07-29T09:20:32.812Z,105103.36
2022-07-29T09:21:33.015Z,101908.48
2022-07-29T09:22:33.053Z,99614.72
2022-07-29T09:23:33.170Z,99532.8
2022-07-29T09:24:33.262Z,98959.36
2022-07-29T09:25:33.361Z,100188.16
2022-07-29T09:26:33.459Z,97812.48
2022-07-29T09:27:33.558Z,98467.84
2022-07-29T09:28:33.712Z,100188.16
2022-07-29T09:29:36.212Z,97812.48
2022-07-29T09:30:33.915Z,96665.6
2022-07-29T09:31:34.054Z,98713.6
2022-07-29T09:32:34.170Z,97402.88
2022-07-29T09:33:34.275Z,92979.2
2022-07-29T09:34:34.382Z,85360.64
2022-07-29T09:35:34.533Z,94699.52
2022-07-29T09:36:34.633Z,94453.76
2022-07-29T09:37:34.725Z,91668.48
2022-07-29T09:38:34.837Z,93061.12
2022-07-29T09:39:34.989Z,92078.08
2022-07-29T09:40:35.146Z,86425.6
2022-07-29T09:41:35.225Z,84131.84
2022-07-29T09:42:35.420Z,89047.04
2022-07-29T09:43:35.496Z,91832.32
2022-07-29T09:44:35.643Z,92078.08
2022-07-29T09:45:35.746Z,90931.2
2022-07-29T09:46:35.949Z,90603.52
2022-07-29T09:47:35.999Z,89866.23
2022-07-29T09:48:36.160Z,89292.8
2022-07-29T09:49:36.261Z,89702.4
2022-07-29T09:50:36.405Z,88801.28
2022-07-29T09:51:38.413Z,88801.28
2022-07-29T09:52:36.659Z,88801.28
2022-07-29T09:53:36.814Z,89210.88
2022-07-29T09:54:36.961Z,89374.72
2022-07-29T09:55:37.072Z,89538.55
2022-07-29T09:56:37.178Z,90193.92
2022-07-29T09:57:37.327Z,91176.96
2022-07-29T09:58:37.420Z,91750.4
2022-07-29T09:59:37.523Z,91750.4
2022-07-29T10:00:37.729Z,91340.8
2022-07-29T10:01:37.771Z,91013.12
2022-07-29T10:02:37.875Z,90767.36
2022-07-29T10:03:38.081Z,91013.12
2022-07-29T10:04:38.178Z,90931.2
2022-07-29T10:05:38.283Z,89702.4
2022-07-29T10:06:38.432Z,70819.84
2022-07-29T10:07:38.586Z,89047.04
2022-07-29T10:08:38.690Z,83640.32
2022-07-29T10:09:38.841Z,90112
2022-07-29T10:10:39.003Z,88719.36
2022-07-29T10:11:48.114Z,90439.68
2022-07-29T10:12:39.246Z,90275.84
2022-07-29T10:13:39.404Z,89620.48
2022-07-29T10:14:39.553Z,88883.2
2022-07-29T10:15:39.698Z,88227.84
2022-07-29T10:16:39.854Z,87736.32
2022-07-29T10:17:41.676Z,87244.8
2022-07-29T10:18:40.129Z,87162.88
2022-07-29T10:19:40.264Z,86753.28
2022-07-29T10:20:40.361Z,86343.68
2022-07-29T10:21:40.462Z,86179.84
2022-07-29T10:22:52.812Z,85196.8
2022-07-29T10:23:46.032Z,84705.28
2022-07-29T10:24:40.923Z,85606.4
2022-07-29T10:25:45.871Z,71802.88
2022-07-29T10:26:41.123Z,81346.56
2022-07-29T10:27:41.291Z,80486.4
2022-07-29T10:28:41.377Z,79298.56
2022-07-29T10:29:41.526Z,77905.92
2022-07-29T10:30:41.629Z,77373.44
2022-07-29T10:31:41.815Z,38236.16
2022-07-29T10:32:41.886Z,74137.6
2022-07-29T10:33:42.043Z,54968.32
2022-07-29T10:34:42.143Z,79093.76
2022-07-29T10:35:42.243Z,75816.96
2022-07-29T10:36:43.259Z,32358.4
2022-07-29T10:37:45.774Z,77086.72
2022-07-29T10:38:45.602Z,78602.24
2022-07-29T10:39:44.855Z,79953.92
2022-07-29T10:40:43.709Z,78848
2022-07-29T10:41:43.756Z,78479.36
2022-07-29T10:42:43.103Z,78807.04
2022-07-29T10:43:43.202Z,77045.76
2022-07-29T10:44:43.366Z,66150.4
2022-07-29T10:45:43.518Z,65986.56
2022-07-29T10:46:43.714Z,53698.56
2022-07-29T10:47:43.766Z,76718.08
2022-07-29T10:48:43.940Z,79093.76
2022-07-29T10:49:44.066Z,80445.44
2022-07-29T10:50:44.232Z,80281.6
2022-07-29T10:51:44.337Z,77537.28
2022-07-29T10:52:44.469Z,80076.8
2022-07-29T10:53:44.573Z,80896
2022-07-29T10:54:44.727Z,61890.56
2022-07-29T10:55:44.888Z,57221.12
2022-07-29T10:56:44.982Z,56729.6
2022-07-29T10:57:52.926Z,54968.32
2022-07-29T10:58:49.906Z,47431.68
2022-07-29T10:59:45.394Z,48291.84
2022-07-29T11:00:45.721Z,51281.92
2022-07-29T11:01:46.388Z,34099.2
2022-07-29T11:02:46.199Z,30494.72
2022-07-29T11:03:49.880Z,28958.72
2022-07-29T11:04:47.016Z,34775.04
2022-07-29T11:05:46.195Z,33177.6
2022-07-29T11:06:46.305Z,32133.12
2022-07-29T11:07:46.609Z,33832.96
2022-07-29T11:08:46.920Z,30924.8
2022-07-29T11:09:46.712Z,31682.56
2022-07-29T11:10:46.821Z,29061.12
2022-07-29T11:11:51.471Z,26460.16
2022-07-29T11:12:47.041Z,25948.16
2022-07-29T11:13:47.112Z,28590.08
2022-07-29T11:14:47.213Z,31047.68
2022-07-29T11:15:47.370Z,29245.44
2022-07-29T11:16:47.523Z,29962.24
2022-07-29T11:17:52.232Z,30064.64
2022-07-29T11:18:47.835Z,39936
2022-07-29T11:19:52.152Z,29736.96
2022-07-29T11:20:48.089Z,30023.68
2022-07-29T11:21:48.947Z,37253.12
2022-07-29T11:22:48.282Z,71229.44
2022-07-29T11:23:48.390Z,39383.04
2022-07-29T11:24:49.429Z,46571.52
2022-07-29T11:25:50.552Z,70123.52
2022-07-29T11:26:48.791Z,67829.76
2022-07-29T11:27:48.887Z,58818.56
2022-07-29T11:28:49.004Z,41553.92
2022-07-29T11:29:49.781Z,35921.92
2022-07-29T11:30:49.202Z,27136
2022-07-29T11:31:49.355Z,33935.36
2022-07-29T11:32:49.503Z,26521.6
2022-07-29T11:33:54.946Z,24350.72
2022-07-29T11:34:49.761Z,21381.12
2022-07-29T11:36:00.718Z,20275.2
2022-07-29T11:36:50.064Z,22384.64
2022-07-29T11:37:50.773Z,26705.92
2022-07-29T11:38:50.366Z,29388.8
2022-07-29T11:39:50.510Z,29081.6
2022-07-29T11:40:50.620Z,28897.28
2022-07-29T11:41:50.767Z,28446.72
2022-07-29T11:42:52.069Z,28262.4
2022-07-29T11:43:51.096Z,28876.8
2022-07-29T11:44:51.192Z,50708.48
2022-07-29T11:45:51.340Z,51896.32
2022-07-29T11:46:51.474Z,60252.16
2022-07-29T11:47:51.648Z,56852.48
2022-07-29T11:48:52.111Z,50339.84
2022-07-29T11:49:51.830Z,47185.92
2022-07-29T11:50:51.938Z,50012.16
2022-07-29T11:51:52.062Z,48209.92
2022-07-29T11:52:52.193Z,34201.6
2022-07-29T11:53:52.434Z,30556.16
2022-07-29T11:54:58.448Z,29102.08
2022-07-29T11:59:53.548Z,29102.08
2022-07-29T12:00:53.217Z,31641.6
2022-07-29T12:02:02.388Z,29163.52
2022-07-29T12:02:53.476Z,29327.36
2022-07-29T12:03:53.583Z,30720
2022-07-29T12:04:53.666Z,35532.8
2022-07-29T12:05:53.821Z,40448
2022-07-29T12:06:53.924Z,34918.4
2022-07-29T12:07:54.069Z,36106.24
2022-07-29T12:08:54.167Z,44564.48
2022-07-29T12:09:56.883Z,46899.2
2022-07-29T12:10:54.373Z,42106.88
2022-07-29T12:11:54.592Z,40632.32
2022-07-29T12:12:54.649Z,42147.84
2022-07-29T12:13:54.774Z,33628.16
2022-07-29T12:14:54.878Z,34242.56
2022-07-29T12:15:55.046Z,35246.08
2022-07-29T12:16:55.191Z,36720.64
2022-07-29T12:17:55.294Z,38502.4
2022-07-29T12:18:55.394Z,53821.44
2022-07-29T12:19:55.489Z,38420.48
2022-07-29T12:20:55.639Z,46407.68
2022-07-29T12:21:56.374Z,49766.4
2022-07-29T12:22:55.894Z,40468.48